createdAt,value
2022-09-23T00:00:16.216Z,958.07
2022-09-23T00:01:16.243Z,958.11
2022-09-23T00:02:16.202Z,958.07
2022-09-23T00:03:16.166Z,958.06
2022-09-23T00:04:16.152Z,958.08
2022-09-23T00:05:16.158Z,958.04
2022-09-23T00:06:16.121Z,958.06
2022-09-23T00:07:16.103Z,958.04
2022-09-23T00:08:16.089Z,958.08
2022-09-23T00:09:16.069Z,958.04
2022-09-23T00:10:16.053Z,958.01
2022-09-23T00:11:16.037Z,958.05
2022-09-23T00:12:16.022Z,958.02
2022-09-23T00:13:16.006Z,958.08
2022-09-23T00:14:15.990Z,958.05
2022-09-23T00:15:15.973Z,958.04
2022-09-23T00:16:16.002Z,958.01
2022-09-23T00:17:15.939Z,958.01
2022-09-23T00:18:15.925Z,957.99
2022-09-23T00:19:15.908Z,958.01
2022-09-23T00:20:15.889Z,958.02
2022-09-23T00:21:15.899Z,958.02
2022-09-23T00:22:15.857Z,957.98
2022-09-23T00:23:15.843Z,957.95
2022-09-23T00:24:15.824Z,957.98
2022-09-23T00:25:15.812Z,957.98
2022-09-23T00:26:15.836Z,958
2022-09-23T00:27:15.778Z,958
2022-09-23T00:28:15.760Z,958.01
2022-09-23T00:29:15.758Z,958.02
2022-09-23T00:30:15.729Z,957.98
2022-09-23T00:31:15.749Z,957.96
2022-09-23T00:32:15.695Z,957.97
2022-09-23T00:33:15.682Z,957.98
2022-09-23T00:34:15.666Z,957.97
2022-09-23T00:35:15.648Z,957.96
2022-09-23T00:36:15.723Z,957.95
2022-09-23T00:37:15.640Z,958.01
2022-09-23T00:38:15.599Z,957.94
2022-09-23T00:39:15.584Z,957.96
2022-09-23T00:40:15.650Z,957.97
2022-09-23T00:41:15.557Z,957.95
2022-09-23T00:42:15.534Z,957.98
2022-09-23T00:43:15.520Z,957.94
2022-09-23T00:44:15.503Z,957.97
2022-09-23T00:45:15.487Z,957.95
2022-09-23T00:46:15.512Z,957.94
2022-09-23T00:47:15.458Z,957.94
2022-09-23T00:48:15.438Z,957.9
2022-09-23T00:49:15.423Z,957.89
2022-09-23T00:50:15.405Z,957.91
2022-09-23T00:51:15.391Z,957.89
2022-09-23T00:52:15.375Z,957.89
2022-09-23T00:53:16.262Z,957.9
2022-09-23T00:54:16.218Z,957.84
2022-09-23T00:55:16.201Z,957.86
2022-09-23T00:56:16.189Z,957.84
2022-09-23T00:57:16.171Z,957.88
2022-09-23T00:58:16.153Z,957.84
2022-09-23T00:59:16.137Z,957.85
2022-09-23T01:00:16.120Z,957.84
2022-09-23T01:01:16.140Z,957.91
2022-09-23T01:02:16.141Z,957.88
2022-09-23T01:03:16.077Z,957.85
2022-09-23T01:04:16.055Z,957.84
2022-09-23T01:05:16.044Z,957.79
2022-09-23T01:06:16.024Z,957.83
2022-09-23T01:07:16.009Z,957.78
2022-09-23T01:08:15.992Z,957.82
2022-09-23T01:09:16.008Z,957.75
2022-09-23T01:10:15.958Z,957.81
2022-09-23T01:11:15.945Z,957.79
2022-09-23T01:12:15.929Z,957.82
2022-09-23T01:13:15.911Z,957.79
2022-09-23T01:14:15.899Z,957.82
2022-09-23T01:15:15.879Z,957.81
2022-09-23T01:16:15.879Z,957.72
2022-09-23T01:17:15.847Z,957.7
2022-09-23T01:18:15.832Z,957.71
2022-09-23T01:19:15.814Z,957.69
2022-09-23T01:20:15.802Z,957.67
2022-09-23T01:21:15.783Z,957.68
2022-09-23T01:22:15.769Z,957.68
2022-09-23T01:23:15.751Z,957.69
2022-09-23T01:24:15.734Z,957.67
2022-09-23T01:25:15.742Z,957.68
2022-09-23T01:26:15.704Z,957.66
2022-09-23T01:27:15.686Z,957.67
2022-09-23T01:28:15.670Z,957.64
2022-09-23T01:29:15.654Z,957.63
2022-09-23T01:30:15.639Z,957.61
2022-09-23T01:31:15.659Z,957.64
2022-09-23T01:32:15.607Z,957.58
2022-09-23T01:33:15.590Z,957.61
2022-09-23T01:34:15.575Z,957.58
2022-09-23T01:35:15.558Z,957.57
2022-09-23T01:36:15.545Z,957.57
2022-09-23T01:37:15.528Z,957.51
2022-09-23T01:38:15.512Z,957.55
2022-09-23T01:39:15.493Z,957.59
2022-09-23T01:40:15.577Z,957.53
2022-09-23T01:41:15.486Z,957.48
2022-09-23T01:42:15.448Z,957.48
2022-09-23T01:43:15.429Z,957.47
2022-09-23T01:44:15.414Z,957.49
2022-09-23T01:45:15.397Z,957.46
2022-09-23T01:46:15.382Z,957.5
2022-09-23T01:47:15.365Z,957.46
2022-09-23T01:48:15.412Z,957.48
2022-09-23T01:49:15.344Z,957.42
2022-09-23T01:50:15.317Z,957.43
2022-09-23T01:51:15.300Z,957.4
2022-09-23T01:52:15.287Z,957.38
2022-09-23T01:53:15.268Z,957.37
2022-09-23T01:54:15.254Z,957.38
2022-09-23T01:55:15.236Z,957.36
2022-09-23T01:56:15.223Z,957.36
2022-09-23T01:57:15.227Z,957.35
2022-09-23T01:58:15.189Z,957.35
2022-09-23T01:59:15.173Z,957.35
2022-09-23T02:00:15.157Z,957.33
2022-09-23T02:01:15.217Z,957.32
2022-09-23T02:02:15.214Z,957.29
2022-09-23T02:03:15.108Z,957.3
2022-09-23T02:04:15.090Z,957.31
2022-09-23T02:05:15.075Z,957.33
2022-09-23T02:06:15.058Z,957.36
2022-09-23T02:07:15.051Z,957.27
2022-09-23T02:08:15.026Z,957.31
2022-09-23T02:09:15.012Z,957.29
2022-09-23T02:10:14.994Z,957.33
2022-09-23T02:11:14.980Z,957.31
2022-09-23T02:12:14.961Z,957.26
2022-09-23T02:13:14.975Z,957.29
2022-09-23T02:14:14.928Z,957.29
2022-09-23T02:15:14.913Z,957.31
2022-09-23T02:16:14.945Z,957.29
2022-09-23T02:17:14.882Z,957.29
2022-09-23T02:18:14.871Z,957.31
2022-09-23T02:19:14.848Z,957.3
2022-09-23T02:20:14.831Z,957.29
2022-09-23T02:21:14.818Z,957.31
2022-09-23T02:22:14.799Z,957.25
2022-09-23T02:23:14.784Z,957.29
2022-09-23T02:24:14.767Z,957.3
2022-09-23T02:25:14.753Z,957.28
2022-09-23T02:26:14.734Z,957.29
2022-09-23T02:27:14.720Z,957.26
2022-09-23T02:28:14.702Z,957.25
2022-09-23T02:29:14.712Z,957.25
2022-09-23T02:30:14.674Z,957.24
2022-09-23T02:31:14.656Z,957.23
2022-09-23T02:32:14.733Z,957.24
2022-09-23T02:33:14.623Z,957.23
2022-09-23T02:34:14.604Z,957.25
2022-09-23T02:35:14.590Z,957.26
2022-09-23T02:36:14.573Z,957.25
2022-09-23T02:37:14.561Z,957.23
2022-09-23T02:38:14.541Z,957.22
2022-09-23T02:39:14.525Z,957.21
2022-09-23T02:40:14.581Z,957.24
2022-09-23T02:41:14.493Z,957.18
2022-09-23T02:42:14.477Z,957.18
2022-09-23T02:43:14.462Z,957.2
2022-09-23T02:44:14.444Z,957.17
2022-09-23T02:45:14.455Z,957.18
2022-09-23T02:46:14.470Z,957.14
2022-09-23T02:47:14.397Z,957.11
2022-09-23T02:48:14.378Z,957.1
2022-09-23T02:49:14.363Z,957.08
2022-09-23T02:50:14.349Z,957.08
2022-09-23T02:51:14.332Z,957.06
2022-09-23T02:52:14.314Z,957.09
2022-09-23T02:53:14.298Z,957.09
2022-09-23T02:54:14.284Z,957.09
2022-09-23T02:55:14.265Z,957.07
2022-09-23T02:56:14.249Z,957.05
2022-09-23T02:57:14.234Z,957.08
2022-09-23T02:58:14.219Z,957.08
2022-09-23T02:59:14.202Z,957.07
2022-09-23T03:00:14.184Z,957.06
2022-09-23T03:01:14.230Z,957.03
2022-09-23T03:02:14.384Z,957.05
2022-09-23T03:03:14.135Z,957.08
2022-09-23T03:04:14.120Z,957.03
2022-09-23T03:05:14.103Z,957.04
2022-09-23T03:06:14.089Z,957.06
2022-09-23T03:07:14.073Z,957.05
2022-09-23T03:08:14.064Z,957.03
2022-09-23T03:09:14.039Z,956.98
2022-09-23T03:10:14.026Z,956.98
2022-09-23T03:11:14.007Z,956.94
2022-09-23T03:12:13.996Z,956.97
2022-09-23T03:13:13.972Z,956.94
2022-09-23T03:14:13.960Z,956.92
2022-09-23T03:15:13.942Z,956.91
2022-09-23T03:16:13.933Z,956.9
2022-09-23T03:17:13.932Z,956.93
2022-09-23T03:18:13.893Z,956.89
2022-09-23T03:19:13.877Z,956.9
2022-09-23T03:20:13.864Z,956.93
2022-09-23T03:21:13.847Z,956.88
2022-09-23T03:22:13.828Z,956.88
2022-09-23T03:23:13.812Z,956.87
2022-09-23T03:24:13.796Z,956.85
2022-09-23T03:25:13.778Z,956.87
2022-09-23T03:26:13.763Z,956.9
2022-09-23T03:27:13.753Z,956.92
2022-09-23T03:28:13.731Z,956.82
2022-09-23T03:29:13.714Z,956.85
2022-09-23T03:30:13.698Z,956.86
2022-09-23T03:31:13.788Z,956.83
2022-09-23T03:32:13.665Z,956.8
2022-09-23T03:49:56.158Z,956.72
2022-09-23T03:50:56.116Z,956.7
2022-09-23T03:51:56.129Z,956.73
2022-09-23T03:52:56.077Z,956.71
2022-09-23T03:53:56.057Z,956.69
2022-09-23T03:54:56.041Z,956.67
2022-09-23T03:55:56.022Z,956.67
2022-09-23T03:56:56.004Z,956.71
2022-09-23T03:57:55.987Z,956.73
2022-09-23T03:58:55.971Z,956.72
2022-09-23T03:59:55.950Z,956.72
2022-09-23T04:00:55.958Z,956.7
2022-09-23T04:01:55.944Z,956.71
2022-09-23T04:02:55.900Z,956.7
2022-09-23T04:03:55.880Z,956.7
2022-09-23T04:04:55.867Z,956.69
2022-09-23T04:05:55.871Z,956.68
2022-09-23T04:06:55.836Z,956.66
2022-09-23T04:07:55.812Z,956.7
2022-09-23T04:08:55.798Z,956.66
2022-09-23T04:09:55.782Z,956.66
2022-09-23T04:10:55.763Z,956.63
2022-09-23T04:11:55.745Z,956.64
2022-09-23T04:12:55.732Z,956.64
2022-09-23T04:13:55.712Z,956.62
2022-09-23T04:14:55.696Z,956.61
2022-09-23T04:15:55.712Z,956.59
2022-09-23T04:16:55.663Z,956.56
2022-09-23T04:17:55.646Z,956.59
2022-09-23T04:18:55.630Z,956.58
2022-09-23T04:19:55.613Z,956.54
2022-09-23T04:20:55.598Z,956.57
2022-09-23T04:21:55.604Z,956.55
2022-09-23T04:22:55.564Z,956.55
2022-09-23T04:23:55.546Z,956.55
2022-09-23T04:24:55.531Z,956.52
2022-09-23T04:25:55.511Z,956.49
2022-09-23T04:26:55.499Z,956.55
2022-09-23T04:27:55.488Z,956.52
2022-09-23T04:28:55.465Z,956.49
2022-09-23T04:29:55.447Z,956.53
2022-09-23T04:30:55.432Z,956.5
2022-09-23T04:31:55.430Z,956.5
2022-09-23T04:32:55.400Z,956.47
2022-09-23T04:33:55.381Z,956.5
2022-09-23T04:34:55.366Z,956.47
2022-09-23T04:35:55.348Z,956.48
2022-09-23T04:36:55.333Z,956.51
2022-09-23T04:37:55.345Z,956.52
2022-09-23T04:38:55.300Z,956.45
2022-09-23T04:39:55.283Z,956.5
2022-09-23T04:40:55.266Z,956.49
2022-09-23T04:41:55.252Z,956.51
2022-09-23T04:42:55.234Z,956.5
2022-09-23T04:43:55.218Z,956.45
2022-09-23T04:44:55.201Z,956.46
2022-09-23T04:45:55.186Z,956.46
2022-09-23T04:46:55.205Z,956.47
2022-09-23T04:47:55.155Z,956.5
2022-09-23T04:48:55.136Z,956.46
2022-09-23T04:49:59.122Z,956.47
2022-09-23T04:50:55.103Z,956.51
2022-09-23T04:51:55.086Z,956.51
2022-09-23T04:52:55.073Z,956.52
2022-09-23T04:53:55.080Z,956.48
2022-09-23T04:54:55.037Z,956.51
2022-09-23T04:55:55.024Z,956.53
2022-09-23T04:56:55.006Z,956.5
2022-09-23T04:57:54.992Z,956.51
2022-09-23T04:58:54.978Z,956.47
2022-09-23T04:59:54.958Z,956.51
2022-09-23T05:00:54.980Z,956.49
2022-09-23T05:01:54.955Z,956.47
2022-09-23T05:02:54.908Z,956.49
2022-09-23T05:03:54.895Z,956.55
2022-09-23T05:04:54.875Z,956.53
2022-09-23T05:05:54.860Z,956.52
2022-09-23T05:06:55.523Z,956.53
2022-09-23T05:07:54.980Z,956.58
2022-09-23T05:08:54.963Z,956.54
2022-09-23T05:09:54.974Z,956.51
2022-09-23T05:10:54.931Z,956.54
2022-09-23T05:11:54.914Z,956.53
2022-09-23T05:12:57.176Z,956.56
2022-09-23T05:13:54.882Z,956.54
2022-09-23T05:14:54.863Z,956.56
2022-09-23T05:15:54.861Z,956.55
2022-09-23T05:16:54.832Z,956.57
2022-09-23T05:17:54.817Z,956.55
2022-09-23T05:18:54.798Z,956.56
2022-09-23T05:19:54.785Z,956.56
2022-09-23T05:20:54.766Z,956.55
2022-09-23T05:21:54.755Z,956.57
2022-09-23T05:22:54.734Z,956.51
2022-09-23T05:23:54.720Z,956.63
2022-09-23T05:24:54.703Z,956.55
2022-09-23T05:25:54.712Z,956.59
2022-09-23T05:26:54.671Z,956.55
2022-09-23T05:27:54.655Z,956.5
2022-09-23T05:28:54.639Z,956.52
2022-09-23T05:29:54.625Z,956.51
2022-09-23T05:30:54.608Z,956.53
2022-09-23T05:31:54.644Z,956.51
2022-09-23T05:32:54.576Z,956.49
2022-09-23T05:33:54.558Z,956.51
2022-09-23T05:34:54.545Z,956.49
2022-09-23T05:35:54.527Z,956.48
2022-09-23T05:36:54.512Z,956.5
2022-09-23T05:37:54.493Z,956.5
2022-09-23T05:38:54.481Z,956.51
2022-09-23T05:39:54.463Z,956.51
2022-09-23T05:40:54.446Z,956.44
2022-09-23T05:41:54.456Z,956.51
2022-09-23T05:42:54.416Z,956.51
2022-09-23T05:43:54.398Z,956.5
2022-09-23T05:44:54.383Z,956.48
2022-09-23T05:45:54.367Z,956.5
2022-09-23T05:46:54.381Z,956.47
2022-09-23T05:47:54.335Z,956.5
2022-09-23T05:48:56.032Z,956.46
2022-09-23T05:49:59.842Z,956.47
2022-09-23T05:50:54.290Z,956.46
2022-09-23T05:51:54.272Z,956.45
2022-09-23T05:52:54.259Z,956.45
2022-09-23T05:53:54.240Z,956.42
2022-09-23T05:54:54.225Z,956.46
2022-09-23T05:55:54.257Z,956.43
2022-09-23T05:56:54.196Z,956.43
2022-09-23T05:57:54.200Z,956.43
2022-09-23T05:58:54.165Z,956.44
2022-09-23T05:59:54.146Z,956.45
2022-09-23T06:00:54.133Z,956.47
2022-09-23T06:01:56.393Z,956.48
2022-09-23T06:02:54.182Z,956.46
2022-09-23T06:03:54.087Z,956.48
2022-09-23T06:04:54.070Z,956.49
2022-09-23T06:05:54.051Z,956.5
2022-09-23T06:06:54.038Z,956.52
2022-09-23T06:07:54.019Z,956.52
2022-09-23T06:08:54.006Z,956.5
2022-09-23T06:09:54.012Z,956.48
2022-09-23T06:10:54.649Z,956.51
2022-09-23T06:11:53.977Z,956.5
2022-09-23T06:12:53.955Z,956.53
2022-09-23T06:13:53.952Z,956.54
2022-09-23T06:14:53.914Z,956.51
2022-09-23T06:15:53.975Z,956.49
2022-09-23T06:16:53.881Z,956.54
2022-09-23T06:17:53.865Z,956.54
2022-09-23T06:18:53.851Z,956.56
2022-09-23T06:19:53.834Z,956.52
2022-09-23T06:20:53.819Z,956.5
2022-09-23T06:21:53.803Z,956.57
2022-09-23T06:22:55.421Z,956.53
2022-09-23T06:23:56.568Z,956.53
2022-09-23T06:24:53.757Z,956.51
2022-09-23T06:25:53.743Z,956.58
2022-09-23T06:26:53.727Z,956.53
2022-09-23T06:27:53.713Z,956.56
2022-09-23T06:28:53.697Z,956.53
2022-09-23T06:29:53.706Z,956.56
2022-09-23T06:30:53.696Z,956.57
2022-09-23T06:31:53.712Z,956.58
2022-09-23T06:32:53.635Z,956.56
2022-09-23T06:34:02.184Z,956.61
2022-09-23T06:34:53.605Z,956.63
2022-09-23T06:35:59.146Z,956.55
2022-09-23T06:36:53.575Z,956.62
2022-09-23T06:37:53.561Z,956.63
2022-09-23T06:38:53.544Z,956.6
2022-09-23T06:39:53.532Z,956.65
2022-09-23T06:40:53.554Z,956.61
2022-09-23T06:41:53.502Z,956.67
2022-09-23T06:42:53.485Z,956.61
2022-09-23T06:43:53.473Z,956.65
2022-09-23T06:44:53.455Z,956.63
2022-09-23T06:45:53.466Z,956.63
2022-09-23T06:46:53.464Z,956.65
2022-09-23T06:47:53.411Z,956.67
2022-09-23T06:48:53.394Z,956.64
2022-09-23T06:49:53.383Z,956.73
2022-09-23T06:50:53.367Z,956.69
2022-09-23T06:51:53.353Z,956.68
2022-09-23T06:52:53.335Z,956.62
2022-09-23T06:53:53.324Z,956.66
2022-09-23T06:54:53.306Z,956.66
2022-09-23T06:55:53.294Z,956.68
2022-09-23T06:56:53.278Z,956.69
2022-09-23T06:57:53.264Z,956.76
2022-09-23T06:58:53.248Z,956.68
2022-09-23T06:59:53.235Z,956.72
2022-09-23T07:00:53.219Z,956.67
2022-09-23T07:01:53.315Z,956.66
2022-09-23T07:02:53.236Z,956.7
2022-09-23T07:03:53.189Z,956.65
2022-09-23T07:04:53.180Z,956.63
2022-09-23T07:05:53.149Z,956.65
2022-09-23T07:06:53.134Z,956.72
2022-09-23T07:07:53.119Z,956.7
2022-09-23T07:08:53.104Z,956.67
2022-09-23T07:09:53.094Z,956.63
2022-09-23T07:10:53.086Z,956.64
2022-09-23T07:11:53.063Z,956.64
2022-09-23T07:12:53.049Z,956.59
2022-09-23T07:13:53.037Z,956.62
2022-09-23T07:14:53.023Z,956.64
2022-09-23T07:15:53.039Z,956.62
2022-09-23T07:16:52.993Z,956.62
2022-09-23T07:17:53.002Z,956.64
2022-09-23T07:18:52.966Z,956.65
2022-09-23T07:19:52.951Z,956.69
2022-09-23T07:20:52.939Z,956.65
2022-09-23T07:21:52.925Z,956.66
2022-09-23T07:22:52.911Z,956.67
2022-09-23T07:23:52.897Z,956.67
2022-09-23T07:24:52.884Z,956.67
2022-09-23T07:25:52.873Z,956.68
2022-09-23T07:26:52.856Z,956.72
2022-09-23T07:27:52.841Z,956.75
2022-09-23T07:28:52.829Z,956.72
2022-09-23T07:29:52.813Z,956.73
2022-09-23T07:30:59.740Z,956.7
2022-09-23T07:31:54.094Z,956.71
2022-09-23T07:32:52.821Z,956.73
2022-09-23T07:33:52.785Z,956.71
2022-09-23T07:34:52.750Z,956.77
2022-09-23T07:35:52.734Z,956.72
2022-09-23T07:36:52.725Z,956.75
2022-09-23T07:37:52.707Z,956.75
2022-09-23T07:38:52.696Z,956.74
2022-09-23T07:39:52.681Z,956.73
2022-09-23T07:40:52.742Z,956.69
2022-09-23T07:41:52.654Z,956.72
2022-09-23T07:42:52.642Z,956.7
2022-09-23T07:43:52.627Z,956.71
2022-09-23T07:44:52.616Z,956.72
2022-09-23T07:45:52.719Z,956.72
2022-09-23T07:46:52.647Z,956.72
2022-09-23T07:47:52.577Z,956.73
2022-09-23T07:48:52.564Z,956.7
2022-09-23T07:49:52.576Z,956.71
2022-09-23T07:50:52.539Z,956.7
2022-09-23T07:51:52.546Z,956.71
2022-09-23T07:52:52.515Z,956.74
2022-09-23T07:53:52.499Z,956.71
2022-09-23T07:54:52.487Z,956.71
2022-09-23T07:55:52.472Z,956.69
2022-09-23T07:56:52.463Z,956.67
2022-09-23T07:57:52.448Z,956.67
2022-09-23T07:58:52.437Z,956.73
2022-09-23T07:59:52.421Z,956.75
2022-09-23T08:00:52.410Z,956.71
2022-09-23T08:01:52.702Z,956.72
2022-09-23T08:02:53.177Z,956.7
2022-09-23T08:03:52.478Z,956.67
2022-09-23T08:04:52.465Z,956.72
2022-09-23T08:05:52.478Z,956.73
2022-09-23T08:06:52.439Z,956.74
2022-09-23T08:07:52.430Z,956.77
2022-09-23T08:08:53.397Z,956.73
2022-09-23T08:09:52.405Z,956.73
2022-09-23T08:10:52.395Z,956.73
2022-09-23T08:11:52.381Z,956.75
2022-09-23T08:12:52.367Z,956.77
2022-09-23T08:13:52.358Z,956.76
2022-09-23T08:14:52.346Z,956.71
2022-09-23T08:15:55.429Z,956.71
2022-09-23T08:16:52.402Z,956.72
2022-09-23T08:17:52.309Z,956.69
2022-09-23T08:18:52.374Z,956.73
2022-09-23T08:19:52.285Z,956.76
2022-09-23T08:20:52.272Z,956.72
2022-09-23T08:21:52.394Z,956.74
2022-09-23T08:22:52.250Z,956.73
2022-09-23T08:23:52.874Z,956.73
2022-09-23T08:24:55.158Z,956.7
2022-09-23T08:25:53.004Z,956.68
2022-09-23T08:26:52.838Z,956.65
2022-09-23T08:27:52.826Z,956.64
2022-09-23T08:28:52.813Z,956.7
2022-09-23T08:29:52.806Z,956.67
2022-09-23T08:30:52.827Z,956.69
2022-09-23T08:31:52.785Z,956.64
2022-09-23T08:32:52.770Z,956.67
2022-09-23T08:33:52.762Z,956.69
2022-09-23T08:34:52.747Z,956.64
2022-09-23T08:35:52.736Z,956.64
2022-09-23T08:36:52.724Z,956.69
2022-09-23T08:37:52.741Z,956.69
2022-09-23T08:38:52.703Z,956.68
2022-09-23T08:39:52.696Z,956.7
2022-09-23T08:40:52.682Z,956.69
2022-09-23T08:41:56.162Z,956.71
2022-09-23T08:42:52.661Z,956.68
2022-09-23T08:43:52.652Z,956.69
2022-09-23T08:44:52.639Z,956.61
2022-09-23T08:45:53.278Z,956.62
2022-09-23T08:46:53.250Z,956.59
2022-09-23T08:47:53.241Z,956.57
2022-09-23T08:48:53.232Z,956.6
2022-09-23T08:49:53.220Z,956.58
2022-09-23T08:50:53.209Z,956.59
2022-09-23T08:51:53.200Z,956.52
2022-09-23T08:52:53.187Z,956.52
2022-09-23T08:53:53.201Z,956.56
2022-09-23T08:54:55.388Z,956.53
2022-09-23T08:55:53.157Z,956.54
2022-09-23T08:56:53.147Z,956.53
2022-09-23T08:58:08.147Z,956.52
2022-09-23T08:58:53.126Z,956.49
2022-09-23T08:59:53.115Z,956.55
2022-09-23T09:00:53.106Z,956.53
2022-09-23T09:01:53.093Z,956.55
2022-09-23T09:02:53.151Z,956.51
2022-09-23T09:03:53.073Z,956.5
2022-09-23T09:04:53.065Z,956.49
2022-09-23T09:05:54.293Z,956.49
2022-09-23T09:06:54.449Z,956.52
2022-09-23T09:07:53.034Z,956.56
2022-09-23T09:08:53.024Z,956.54
2022-09-23T09:09:53.036Z,956.54
2022-09-23T09:10:53.006Z,956.56
2022-09-23T09:11:52.993Z,956.57
2022-09-23T09:12:52.985Z,956.58
2022-09-23T09:13:52.973Z,956.58
2022-09-23T09:14:52.967Z,956.58
2022-09-23T09:15:55.072Z,956.6
2022-09-23T09:16:59.756Z,956.59
2022-09-23T09:17:52.945Z,956.56
2022-09-23T09:18:52.928Z,956.55
2022-09-23T09:19:52.928Z,956.56
2022-09-23T09:20:52.914Z,956.57
2022-09-23T09:21:52.896Z,956.53
2022-09-23T09:22:52.891Z,956.54
2022-09-23T09:23:52.879Z,956.53
2022-09-23T09:24:52.870Z,956.54
2022-09-23T09:25:52.884Z,956.51
2022-09-23T09:26:52.851Z,956.51
2022-09-23T09:27:52.843Z,956.53
2022-09-23T09:28:52.834Z,956.52
2022-09-23T09:29:52.823Z,956.54
2022-09-23T09:30:52.863Z,956.48
2022-09-23T09:31:52.805Z,956.53
2022-09-23T09:32:52.799Z,956.53
2022-09-23T09:33:52.787Z,956.52
2022-09-23T09:34:52.779Z,956.48
2022-09-23T09:35:52.770Z,956.49
2022-09-23T09:36:52.762Z,956.47
2022-09-23T09:37:53.429Z,956.45
2022-09-23T09:38:52.746Z,956.44
2022-09-23T09:39:52.735Z,956.41
2022-09-23T09:40:52.748Z,956.42
2022-09-23T09:41:52.742Z,956.35
2022-09-23T09:42:52.714Z,956.29
2022-09-23T09:43:52.707Z,956.33
2022-09-23T09:44:52.692Z,956.32
2022-09-23T09:45:56.729Z,956.34
2022-09-23T09:46:52.723Z,956.29
2022-09-23T09:47:52.669Z,956.25
2022-09-23T09:48:52.657Z,956.26
2022-09-23T09:49:52.651Z,956.26
2022-09-23T09:50:52.654Z,956.27
2022-09-23T09:51:52.636Z,956.25
2022-09-23T09:52:52.572Z,956.2
2022-09-23T09:53:52.582Z,956.19
2022-09-23T09:54:52.555Z,956.18
2022-09-23T09:55:52.547Z,956.17
2022-09-23T09:56:52.562Z,956.14
2022-09-23T09:57:52.557Z,956.16
2022-09-23T09:58:52.522Z,956.12
2022-09-23T09:59:52.515Z,956.05
2022-09-23T10:00:52.507Z,956.11
2022-09-23T10:01:52.568Z,956.11
2022-09-23T10:02:52.489Z,956.09
2022-09-23T10:03:54.333Z,956.06
2022-09-23T10:04:52.499Z,956.08
2022-09-23T10:05:52.467Z,956.04
2022-09-23T10:06:52.455Z,956.04
2022-09-23T10:07:52.449Z,956.09
2022-09-23T10:08:52.440Z,956.05
2022-09-23T10:09:53.883Z,956.04
2022-09-23T10:10:52.429Z,956.03
2022-09-23T10:11:52.443Z,956.01
2022-09-23T10:12:52.407Z,956.01
2022-09-23T10:13:52.425Z,955.99
2022-09-23T10:14:52.404Z,956.05
2022-09-23T10:15:52.387Z,956.05
2022-09-23T10:16:52.417Z,956.02
2022-09-23T10:17:52.371Z,955.98
2022-09-23T10:18:52.360Z,956.02
2022-09-23T10:19:52.354Z,956.02
2022-09-23T10:20:52.345Z,955.98
2022-09-23T10:21:52.339Z,956.01
2022-09-23T10:22:52.331Z,955.94
2022-09-23T10:23:52.324Z,955.94
2022-09-23T10:24:52.317Z,955.97
2022-09-23T10:25:52.311Z,955.94
2022-09-23T10:26:52.303Z,955.94
2022-09-23T10:27:52.297Z,955.98
2022-09-23T10:28:52.292Z,955.93
2022-09-23T10:29:52.306Z,955.99
2022-09-23T10:30:52.302Z,955.96
2022-09-23T10:31:52.268Z,955.93
2022-09-23T10:32:52.258Z,955.94
2022-09-23T10:33:52.252Z,955.95
2022-09-23T10:34:52.245Z,955.9
2022-09-23T10:35:52.388Z,955.94
2022-09-23T10:36:52.230Z,955.91
2022-09-23T10:37:52.226Z,955.88
2022-09-23T10:38:52.216Z,955.89
2022-09-23T10:39:52.211Z,955.81
2022-09-23T10:40:52.370Z,955.84
2022-09-23T10:41:52.199Z,955.85
2022-09-23T10:42:52.194Z,955.8
2022-09-23T10:43:52.184Z,955.81
2022-09-23T10:44:52.180Z,955.82
2022-09-23T10:45:52.257Z,955.79
2022-09-23T10:46:52.164Z,955.86
2022-09-23T10:47:52.159Z,955.81
2022-09-23T10:48:52.154Z,955.81
2022-09-23T10:49:52.145Z,955.79
2022-09-23T10:50:52.139Z,955.82
2022-09-23T10:51:52.134Z,955.79
2022-09-23T10:52:52.127Z,955.78
2022-09-23T10:53:52.146Z,955.77
2022-09-23T10:54:52.114Z,955.76
2022-09-23T10:55:52.106Z,955.71
2022-09-23T10:56:52.100Z,955.7
2022-09-23T10:57:52.091Z,955.7
2022-09-23T10:58:52.086Z,955.69
2022-09-23T10:59:52.079Z,955.62
2022-09-23T11:00:52.077Z,955.64
2022-09-23T11:01:52.185Z,955.66
2022-09-23T11:02:52.060Z,955.65
2022-09-23T11:03:52.057Z,955.66
2022-09-23T11:04:52.127Z,955.66
2022-09-23T11:05:52.041Z,955.66
2022-09-23T11:06:52.035Z,955.62
2022-09-23T11:07:52.028Z,955.63
2022-09-23T11:08:52.023Z,955.62
2022-09-23T11:09:52.014Z,955.62
2022-09-23T11:10:52.009Z,955.6
2022-09-23T11:11:52.001Z,955.58
2022-09-23T11:12:51.995Z,955.59
2022-09-23T11:13:54.359Z,955.58
2022-09-23T11:14:51.983Z,955.57
2022-09-23T11:15:51.977Z,955.58
2022-09-23T11:16:51.985Z,955.6
2022-09-23T11:17:52.002Z,955.61
2022-09-23T11:18:51.960Z,955.55
2022-09-23T11:19:51.948Z,955.54
2022-09-23T11:20:51.945Z,955.55
2022-09-23T11:21:51.941Z,955.53
2022-09-23T11:22:51.931Z,955.49
2022-09-23T11:23:51.922Z,955.49
2022-09-23T11:24:51.917Z,955.51
2022-09-23T11:25:51.909Z,955.5
2022-09-23T11:26:51.904Z,955.5
2022-09-23T11:27:51.896Z,955.51
2022-09-23T11:28:51.891Z,955.47
2022-09-23T11:29:51.882Z,955.46
2022-09-23T11:30:51.992Z,955.43
2022-09-23T11:31:54.096Z,955.42
2022-09-23T11:32:51.902Z,955.44
2022-09-23T11:33:51.882Z,955.42
2022-09-23T11:34:54.209Z,955.44
2022-09-23T11:35:51.843Z,955.42
2022-09-23T11:36:51.835Z,955.42
2022-09-23T11:37:51.831Z,955.39
2022-09-23T11:38:52.203Z,955.35
2022-09-23T11:39:52.199Z,955.3
2022-09-23T11:40:52.258Z,955.27
2022-09-23T11:41:52.183Z,955.31
2022-09-23T11:42:52.175Z,955.32
2022-09-23T11:43:52.170Z,955.3
2022-09-23T11:44:52.162Z,955.29
2022-09-23T11:45:52.192Z,955.24
2022-09-23T11:46:52.147Z,955.25
2022-09-23T11:47:52.142Z,955.29
2022-09-23T11:48:52.133Z,955.24
2022-09-23T11:49:52.157Z,955.24
2022-09-23T11:50:52.119Z,955.22
2022-09-23T11:51:52.114Z,955.19
2022-09-23T11:52:52.107Z,955.19
2022-09-23T11:53:52.100Z,955.2
2022-09-23T11:54:52.170Z,955.19
2022-09-23T11:55:57.683Z,955.24
2022-09-23T11:56:52.076Z,955.2
2022-09-23T11:57:52.070Z,955.19
2022-09-23T11:58:53.999Z,955.17
2022-09-23T11:59:52.062Z,955.14
2022-09-23T12:00:54.980Z,955.14
2022-09-23T12:01:52.069Z,955.14
2022-09-23T12:03:01.222Z,955.11
2022-09-23T12:03:52.120Z,955.09
2022-09-23T12:04:57.404Z,955.06
2022-09-23T12:05:52.127Z,955.14
2022-09-23T12:06:52.006Z,955.09
2022-09-23T12:07:52.001Z,955.09
2022-09-23T12:08:51.994Z,955.08
2022-09-23T12:09:58.359Z,955.08
2022-09-23T12:10:51.979Z,955.03
2022-09-23T12:11:51.973Z,955.04
2022-09-23T12:12:51.965Z,955.01
2022-09-23T12:13:51.960Z,955.02
2022-09-23T12:14:51.958Z,955.03
2022-09-23T12:15:51.963Z,955.04
2022-09-23T12:16:51.963Z,954.98
2022-09-23T12:17:51.934Z,955.03
2022-09-23T12:18:51.920Z,955.03
2022-09-23T12:19:51.915Z,955.04
2022-09-23T12:20:51.905Z,955.05
2022-09-23T12:21:51.959Z,955.06
2022-09-23T12:22:51.893Z,954.99
2022-09-23T12:23:51.885Z,955.03
2022-09-23T12:24:51.878Z,955
2022-09-23T12:25:51.870Z,954.98
2022-09-23T12:26:51.867Z,955
2022-09-23T12:27:51.855Z,955.01
2022-09-23T12:28:51.849Z,954.99
2022-09-23T12:29:51.842Z,954.98
2022-09-23T12:30:51.859Z,954.97
2022-09-23T12:31:51.826Z,954.97
2022-09-23T12:32:51.822Z,954.97
2022-09-23T12:33:51.811Z,954.97
2022-09-23T12:34:51.805Z,954.94
2022-09-23T12:35:51.798Z,954.9
2022-09-23T12:36:51.791Z,954.91
2022-09-23T12:37:51.806Z,954.91
2022-09-23T12:38:51.777Z,954.89
2022-09-23T12:39:51.769Z,954.92
2022-09-23T12:40:51.831Z,954.9
2022-09-23T12:41:51.751Z,954.89
2022-09-23T12:42:51.746Z,954.83
2022-09-23T12:43:51.736Z,954.89
2022-09-23T12:44:51.730Z,954.88
2022-09-23T12:45:51.764Z,954.89
2022-09-23T12:46:51.717Z,954.86